sensor_id;sensor_type;location;lat;lon;timestamp;P1;durP1;ratioP1;P2;durP2;ratioP2
45011;SDS011;63444;48.148;11.542;2023-02-03T00:01:46;3.90;;;2.20;;
45011;SDS011;63444;48.148;11.542;2023-02-03T00:04:12;6.00;;;2.27;;
45011;SDS011;63444;48.148;11.542;2023-02-03T00:06:38;4.80;;;2.40;;
45011;SDS011;63444;48.148;11.542;2023-02-03T00:09:04;5.50;;;2.20;;
45011;SDS011;63444;48.148;11.542;2023-02-03T00:11:30;3.07;;;2.17;;
45011;SDS011;63444;48.148;11.542;2023-02-03T00:13:56;5.50;;;2.10;;
45011;SDS011;63444;48.148;11.542;2023-02-03T00:16:22;2.50;;;1.90;;
45011;SDS011;63444;48.148;11.542;2023-02-03T00:18:47;5.23;;;2.10;;
45011;SDS011;63444;48.148;11.542;2023-02-03T00:21:13;2.63;;;2.03;;
45011;SDS011;63444;48.148;11.542;2023-02-03T00:23:39;5.17;;;2.00;;
45011;SDS011;63444;48.148;11.542;2023-02-03T00:26:09;3.93;;;2.33;;
45011;SDS011;63444;48.148;11.542;2023-02-03T00:28:36;4.47;;;2.00;;
45011;SDS011;63444;48.148;11.542;2023-02-03T00:31:02;4.57;;;2.07;;
45011;SDS011;63444;48.148;11.542;2023-02-03T00:33:28;3.67;;;2.27;;
45011;SDS011;63444;48.148;11.542;2023-02-03T00:35:54;3.20;;;1.80;;
45011;SDS011;63444;48.148;11.542;2023-02-03T00:38:21;4.50;;;1.90;;
45011;SDS011;63444;48.148;11.542;2023-02-03T00:40:52;3.20;;;1.97;;
45011;SDS011;63444;48.148;11.542;2023-02-03T00:43:19;2.07;;;1.60;;
45011;SDS011;63444;48.148;11.542;2023-02-03T00:45:44;4.07;;;2.10;;
45011;SDS011;63444;48.148;11.542;2023-02-03T00:48:10;1.93;;;1.67;;
45011;SDS011;63444;48.148;11.542;2023-02-03T00:50:36;3.83;;;2.00;;
45011;SDS011;63444;48.148;11.542;2023-02-03T00:53:01;5.57;;;2.00;;
45011;SDS011;63444;48.148;11.542;2023-02-03T00:55:27;3.50;;;1.83;;
45011;SDS011;63444;48.148;11.542;2023-02-03T00:57:54;5.40;;;1.90;;
45011;SDS011;63444;48.148;11.542;2023-02-03T01:00:19;3.50;;;1.87;;
45011;SDS011;63444;48.148;11.542;2023-02-03T01:02:45;5.77;;;1.77;;
45011;SDS011;63444;48.148;11.542;2023-02-03T01:05:11;4.67;;;1.87;;
45011;SDS011;63444;48.148;11.542;2023-02-03T01:07:37;2.77;;;2.20;;
45011;SDS011;63444;48.148;11.542;2023-02-03T01:10:03;3.63;;;2.00;;
45011;SDS011;63444;48.148;11.542;2023-02-03T01:12:30;3.30;;;2.00;;
45011;SDS011;63444;48.148;11.542;2023-02-03T01:14:56;4.53;;;1.97;;
45011;SDS011;63444;48.148;11.542;2023-02-03T01:17:22;2.80;;;1.67;;
45011;SDS011;63444;48.148;11.542;2023-02-03T01:19:50;3.83;;;1.77;;
45011;SDS011;63444;48.148;11.542;2023-02-03T01:22:16;3.20;;;1.80;;
45011;SDS011;63444;48.148;11.542;2023-02-03T01:24:42;3.20;;;1.77;;
45011;SDS011;63444;48.148;11.542;2023-02-03T01:27:09;3.77;;;1.70;;
45011;SDS011;63444;48.148;11.542;2023-02-03T01:29:34;3.87;;;2.10;;
45011;SDS011;63444;48.148;11.542;2023-02-03T01:32:00;2.17;;;1.70;;
45011;SDS011;63444;48.148;11.542;2023-02-03T01:34:26;4.40;;;2.10;;
45011;SDS011;63444;48.148;11.542;2023-02-03T01:36:53;2.63;;;1.83;;
45011;SDS011;63444;48.148;11.542;2023-02-03T01:39:19;3.90;;;2.27;;
45011;SDS011;63444;48.148;11.542;2023-02-03T01:41:46;3.27;;;1.90;;
45011;SDS011;63444;48.148;11.542;2023-02-03T01:44:35;3.07;;;2.10;;
45011;SDS011;63444;48.148;11.542;2023-02-03T01:47:10;3.87;;;1.80;;
45011;SDS011;63444;48.148;11.542;2023-02-03T01:49:40;5.67;;;1.90;;
45011;SDS011;63444;48.148;11.542;2023-02-03T01:52:08;6.07;;;1.87;;
45011;SDS011;63444;48.148;11.542;2023-02-03T01:54:35;4.97;;;2.03;;
45011;SDS011;63444;48.148;11.542;2023-02-03T01:57:05;2.67;;;1.70;;
45011;SDS011;63444;48.148;11.542;2023-02-03T01:59:43;4.63;;;2.10;;
45011;SDS011;63444;48.148;11.542;2023-02-03T02:02:09;6.03;;;2.00;;
45011;SDS011;63444;48.148;11.542;2023-02-03T02:04:38;3.07;;;1.80;;
45011;SDS011;63444;48.148;11.542;2023-02-03T02:07:15;5.17;;;2.03;;
45011;SDS011;63444;48.148;11.542;2023-02-03T02:09:41;3.97;;;1.73;;
45011;SDS011;63444;48.148;11.542;2023-02-03T02:12:09;2.77;;;1.60;;
45011;SDS011;63444;48.148;11.542;2023-02-03T02:14:37;4.57;;;1.90;;
45011;SDS011;63444;48.148;11.542;2023-02-03T02:25:13;4.30;;;1.90;;
45011;SDS011;63444;48.148;11.542;2023-02-03T02:39:31;2.93;;;1.70;;
45011;SDS011;63444;48.148;11.542;2023-02-03T02:42:22;2.60;;;1.63;;
45011;SDS011;63444;48.148;11.542;2023-02-03T02:45:11;4.73;;;1.73;;
45011;SDS011;63444;48.148;11.542;2023-02-03T02:47:41;1.50;;;1.40;;
45011;SDS011;63444;48.148;11.542;2023-02-03T02:50:12;2.37;;;1.50;;
45011;SDS011;63444;48.148;11.542;2023-02-03T02:52:44;4.70;;;1.73;;
45011;SDS011;63444;48.148;11.542;2023-02-03T02:55:16;6.73;;;1.70;;
45011;SDS011;63444;48.148;11.542;2023-02-03T02:57:48;2.10;;;1.60;;
45011;SDS011;63444;48.148;11.542;2023-02-03T03:00:16;4.20;;;1.77;;
45011;SDS011;63444;48.148;11.542;2023-02-03T03:02:42;2.80;;;1.80;;
45011;SDS011;63444;48.148;11.542;2023-02-03T03:05:07;3.17;;;1.70;;
45011;SDS011;63444;48.148;11.542;2023-02-03T03:07:38;4.43;;;1.67;;
45011;SDS011;63444;48.148;11.542;2023-02-03T03:10:10;3.97;;;1.60;;
45011;SDS011;63444;48.148;11.542;2023-02-03T03:12:48;2.17;;;1.43;;
45011;SDS011;63444;48.148;11.542;2023-02-03T03:15:19;3.23;;;1.77;;
45011;SDS011;63444;48.148;11.542;2023-02-03T03:17:59;2.23;;;1.50;;
45011;SDS011;63444;48.148;11.542;2023-02-03T03:20:29;4.23;;;1.70;;
45011;SDS011;63444;48.148;11.542;2023-02-03T03:23:40;3.63;;;1.70;;
45011;SDS011;63444;48.148;11.542;2023-02-03T03:25:50;3.63;;;1.57;;
45011;SDS011;63444;48.148;11.542;2023-02-03T03:28:24;2.17;;;1.50;;
45011;SDS011;63444;48.148;11.542;2023-02-03T03:30:57;4.03;;;1.70;;
45011;SDS011;63444;48.148;11.542;2023-02-03T03:33:23;2.77;;;1.50;;
45011;SDS011;63444;48.148;11.542;2023-02-03T03:35:54;2.40;;;1.50;;
45011;SDS011;63444;48.148;11.542;2023-02-03T03:38:48;2.03;;;1.60;;
45011;SDS011;63444;48.148;11.542;2023-02-03T03:44:39;4.30;;;1.90;;
45011;SDS011;63444;48.148;11.542;2023-02-03T03:47:13;2.57;;;1.70;;
45011;SDS011;63444;48.148;11.542;2023-02-03T03:49:43;3.30;;;1.80;;
45011;SDS011;63444;48.148;11.542;2023-02-03T03:52:13;3.03;;;1.60;;
45011;SDS011;63444;48.148;11.542;2023-02-03T03:54:42;2.33;;;1.70;;
45011;SDS011;63444;48.148;11.542;2023-02-03T03:57:12;2.50;;;1.40;;
45011;SDS011;63444;48.148;11.542;2023-02-03T03:59:43;5.13;;;1.90;;
45011;SDS011;63444;48.148;11.542;2023-02-03T04:02:12;2.63;;;1.60;;
45011;SDS011;63444;48.148;11.542;2023-02-03T04:04:39;2.57;;;1.47;;
45011;SDS011;63444;48.148;11.542;2023-02-03T04:07:07;2.70;;;1.57;;
45011;SDS011;63444;48.148;11.542;2023-02-03T04:09:33;2.53;;;1.40;;
45011;SDS011;63444;48.148;11.542;2023-02-03T04:12:01;2.07;;;1.37;;
45011;SDS011;63444;48.148;11.542;2023-02-03T04:14:28;3.83;;;1.50;;
45011;SDS011;63444;48.148;11.542;2023-02-03T04:16:55;2.43;;;1.43;;
45011;SDS011;63444;48.148;11.542;2023-02-03T04:19:21;4.67;;;1.70;;
45011;SDS011;63444;48.148;11.542;2023-02-03T04:21:47;1.77;;;1.40;;
45011;SDS011;63444;48.148;11.542;2023-02-03T04:24:13;2.77;;;1.70;;
45011;SDS011;63444;48.148;11.542;2023-02-03T04:26:39;5.13;;;1.70;;
45011;SDS011;63444;48.148;11.542;2023-02-03T04:29:05;1.87;;;1.50;;
45011;SDS011;63444;48.148;11.542;2023-02-03T04:31:30;2.70;;;1.50;;
45011;SDS011;63444;48.148;11.542;2023-02-03T04:33:56;4.13;;;1.50;;
45011;SDS011;63444;48.148;11.542;2023-02-03T04:36:22;1.90;;;1.50;;
45011;SDS011;63444;48.148;11.542;2023-02-03T04:38:47;3.90;;;1.43;;
45011;SDS011;63444;48.148;11.542;2023-02-03T04:41:13;3.47;;;1.77;;
45011;SDS011;63444;48.148;11.542;2023-02-03T04:43:39;1.90;;;1.40;;
45011;SDS011;63444;48.148;11.542;2023-02-03T04:46:05;2.67;;;1.40;;
45011;SDS011;63444;48.148;11.542;2023-02-03T04:48:30;4.40;;;1.73;;
45011;SDS011;63444;48.148;11.542;2023-02-03T04:51:03;3.73;;;1.60;;
45011;SDS011;63444;48.148;11.542;2023-02-03T04:53:30;2.77;;;1.53;;
45011;SDS011;63444;48.148;11.542;2023-02-03T04:55:56;4.90;;;1.80;;
45011;SDS011;63444;48.148;11.542;2023-02-03T04:58:22;2.57;;;1.53;;
45011;SDS011;63444;48.148;11.542;2023-02-03T05:00:47;2.37;;;1.50;;
45011;SDS011;63444;48.148;11.542;2023-02-03T05:03:13;3.20;;;1.60;;
45011;SDS011;63444;48.148;11.542;2023-02-03T05:05:38;2.47;;;1.63;;
45011;SDS011;63444;48.148;11.542;2023-02-03T05:08:04;3.47;;;1.70;;
45011;SDS011;63444;48.148;11.542;2023-02-03T05:10:30;2.63;;;1.53;;
45011;SDS011;63444;48.148;11.542;2023-02-03T05:12:55;4.50;;;1.80;;
45011;SDS011;63444;48.148;11.542;2023-02-03T05:15:21;2.80;;;1.63;;
45011;SDS011;63444;48.148;11.542;2023-02-03T05:17:53;4.20;;;1.43;;
45011;SDS011;63444;48.148;11.542;2023-02-03T05:20:19;1.50;;;1.40;;
45011;SDS011;63444;48.148;11.542;2023-02-03T05:22:45;4.03;;;1.77;;
45011;SDS011;63444;48.148;11.542;2023-02-03T05:25:11;2.50;;;1.53;;
45011;SDS011;63444;48.148;11.542;2023-02-03T05:27:37;2.33;;;1.50;;
45011;SDS011;63444;48.148;11.542;2023-02-03T05:30:03;3.83;;;1.70;;
45011;SDS011;63444;48.148;11.542;2023-02-03T05:32:29;3.90;;;1.80;;
45011;SDS011;63444;48.148;11.542;2023-02-03T05:34:55;3.50;;;1.63;;
45011;SDS011;63444;48.148;11.542;2023-02-03T05:37:21;5.30;;;1.70;;
45011;SDS011;63444;48.148;11.542;2023-02-03T05:39:47;3.47;;;1.90;;
45011;SDS011;63444;48.148;11.542;2023-02-03T05:42:13;4.77;;;1.90;;
45011;SDS011;63444;48.148;11.542;2023-02-03T05:44:38;3.33;;;1.60;;
45011;SDS011;63444;48.148;11.542;2023-02-03T05:47:04;3.97;;;1.70;;
45011;SDS011;63444;48.148;11.542;2023-02-03T05:49:30;4.03;;;1.73;;
45011;SDS011;63444;48.148;11.542;2023-02-03T05:51:55;4.37;;;1.63;;
45011;SDS011;63444;48.148;11.542;2023-02-03T05:54:21;4.27;;;1.70;;
45011;SDS011;63444;48.148;11.542;2023-02-03T05:56:48;3.50;;;1.97;;
45011;SDS011;63444;48.148;11.542;2023-02-03T05:59:14;2.37;;;1.67;;
45011;SDS011;63444;48.148;11.542;2023-02-03T06:01:39;2.73;;;1.60;;
45011;SDS011;63444;48.148;11.542;2023-02-03T06:04:05;2.47;;;1.53;;
45011;SDS011;63444;48.148;11.542;2023-02-03T06:06:31;2.17;;;1.30;;
45011;SDS011;63444;48.148;11.542;2023-02-03T06:09:01;4.73;;;1.80;;
45011;SDS011;63444;48.148;11.542;2023-02-03T06:11:29;5.77;;;1.87;;
45011;SDS011;63444;48.148;11.542;2023-02-03T06:13:55;2.33;;;1.40;;
45011;SDS011;63444;48.148;11.542;2023-02-03T06:16:22;6.60;;;2.20;;
45011;SDS011;63444;48.148;11.542;2023-02-03T06:18:52;2.57;;;1.60;;
45011;SDS011;63444;48.148;11.542;2023-02-03T06:21:20;3.17;;;1.37;;
45011;SDS011;63444;48.148;11.542;2023-02-03T06:23:46;2.83;;;1.60;;
45011;SDS011;63444;48.148;11.542;2023-02-03T06:26:12;3.87;;;1.50;;
45011;SDS011;63444;48.148;11.542;2023-02-03T06:28:38;2.63;;;1.57;;
45011;SDS011;63444;48.148;11.542;2023-02-03T06:31:04;3.90;;;1.60;;
45011;SDS011;63444;48.148;11.542;2023-02-03T06:33:29;2.37;;;1.37;;
45011;SDS011;63444;48.148;11.542;2023-02-03T06:35:55;3.57;;;1.50;;
45011;SDS011;63444;48.148;11.542;2023-02-03T06:38:21;4.67;;;1.93;;
45011;SDS011;63444;48.148;11.542;2023-02-03T06:40:47;2.47;;;1.50;;
45011;SDS011;63444;48.148;11.542;2023-02-03T06:43:13;3.23;;;1.73;;
45011;SDS011;63444;48.148;11.542;2023-02-03T06:45:39;2.57;;;1.53;;
45011;SDS011;63444;48.148;11.542;2023-02-03T06:48:04;6.23;;;1.93;;
45011;SDS011;63444;48.148;11.542;2023-02-03T06:50:30;4.43;;;1.47;;
45011;SDS011;63444;48.148;11.542;2023-02-03T06:52:57;3.90;;;1.40;;
45011;SDS011;63444;48.148;11.542;2023-02-03T06:55:22;2.40;;;1.67;;
45011;SDS011;63444;48.148;11.542;2023-02-03T06:57:48;3.13;;;1.60;;
45011;SDS011;63444;48.148;11.542;2023-02-03T07:00:14;3.27;;;1.57;;
45011;SDS011;63444;48.148;11.542;2023-02-03T07:02:41;2.70;;;1.60;;
45011;SDS011;63444;48.148;11.542;2023-02-03T07:05:07;2.27;;;1.40;;
45011;SDS011;63444;48.148;11.542;2023-02-03T07:07:33;3.03;;;1.60;;
45011;SDS011;63444;48.148;11.542;2023-02-03T07:10:00;1.80;;;1.30;;
45011;SDS011;63444;48.148;11.542;2023-02-03T07:12:26;4.50;;;1.63;;
45011;SDS011;63444;48.148;11.542;2023-02-03T07:14:52;2.90;;;1.70;;
45011;SDS011;63444;48.148;11.542;2023-02-03T07:17:18;2.33;;;1.43;;
45011;SDS011;63444;48.148;11.542;2023-02-03T07:19:43;2.37;;;1.50;;
45011;SDS011;63444;48.148;11.542;2023-02-03T07:22:09;2.33;;;1.50;;
45011;SDS011;63444;48.148;11.542;2023-02-03T07:24:35;3.63;;;1.40;;
45011;SDS011;63444;48.148;11.542;2023-02-03T07:27:01;2.97;;;1.50;;
45011;SDS011;63444;48.148;11.542;2023-02-03T07:29:27;3.00;;;1.10;;
45011;SDS011;63444;48.148;11.542;2023-02-03T07:31:53;2.87;;;1.67;;
45011;SDS011;63444;48.148;11.542;2023-02-03T07:34:18;1.63;;;1.30;;
45011;SDS011;63444;48.148;11.542;2023-02-03T07:36:44;2.73;;;1.30;;
45011;SDS011;63444;48.148;11.542;2023-02-03T07:39:09;1.90;;;1.40;;
45011;SDS011;63444;48.148;11.542;2023-02-03T07:41:36;2.97;;;1.57;;
45011;SDS011;63444;48.148;11.542;2023-02-03T07:44:02;1.77;;;1.60;;
45011;SDS011;63444;48.148;11.542;2023-02-03T07:46:28;4.53;;;1.60;;
45011;SDS011;63444;48.148;11.542;2023-02-03T07:48:53;3.27;;;1.23;;
45011;SDS011;63444;48.148;11.542;2023-02-03T07:51:19;2.33;;;1.50;;
45011;SDS011;63444;48.148;11.542;2023-02-03T07:53:46;4.60;;;1.30;;
45011;SDS011;63444;48.148;11.542;2023-02-03T07:56:13;4.20;;;1.50;;
45011;SDS011;63444;48.148;11.542;2023-02-03T07:58:38;4.77;;;1.30;;
45011;SDS011;63444;48.148;11.542;2023-02-03T08:01:14;2.97;;;1.53;;
45011;SDS011;63444;48.148;11.542;2023-02-03T08:03:41;3.33;;;1.40;;
45011;SDS011;63444;48.148;11.542;2023-02-03T08:06:08;3.10;;;1.30;;
45011;SDS011;63444;48.148;11.542;2023-02-03T08:08:34;2.47;;;1.40;;
45011;SDS011;63444;48.148;11.542;2023-02-03T08:11:00;5.00;;;1.40;;
45011;SDS011;63444;48.148;11.542;2023-02-03T08:13:26;1.97;;;1.40;;
45011;SDS011;63444;48.148;11.542;2023-02-03T08:15:52;2.33;;;1.47;;
45011;SDS011;63444;48.148;11.542;2023-02-03T08:18:18;2.90;;;1.40;;
45011;SDS011;63444;48.148;11.542;2023-02-03T08:20:45;2.43;;;1.53;;
45011;SDS011;63444;48.148;11.542;2023-02-03T08:23:11;2.03;;;1.50;;
45011;SDS011;63444;48.148;11.542;2023-02-03T08:25:37;2.40;;;1.53;;
45011;SDS011;63444;48.148;11.542;2023-02-03T08:28:03;3.80;;;1.37;;
45011;SDS011;63444;48.148;11.542;2023-02-03T08:30:28;3.60;;;1.40;;
45011;SDS011;63444;48.148;11.542;2023-02-03T08:32:54;2.63;;;1.40;;
45011;SDS011;63444;48.148;11.542;2023-02-03T08:35:21;2.47;;;1.57;;
45011;SDS011;63444;48.148;11.542;2023-02-03T08:37:47;2.03;;;1.40;;
45011;SDS011;63444;48.148;11.542;2023-02-03T08:40:12;4.30;;;2.00;;
45011;SDS011;63444;48.148;11.542;2023-02-03T08:42:38;3.50;;;1.63;;
45011;SDS011;63444;48.148;11.542;2023-02-03T08:45:04;3.67;;;1.40;;
45011;SDS011;63444;48.148;11.542;2023-02-03T08:47:30;1.90;;;1.37;;
45011;SDS011;63444;48.148;11.542;2023-02-03T08:49:56;2.43;;;1.50;;
45011;SDS011;63444;48.148;11.542;2023-02-03T08:52:22;5.30;;;1.67;;
45011;SDS011;63444;48.148;11.542;2023-02-03T08:54:48;5.33;;;1.37;;
45011;SDS011;63444;48.148;11.542;2023-02-03T08:57:14;3.17;;;1.30;;
45011;SDS011;63444;48.148;11.542;2023-02-03T08:59:40;2.23;;;1.60;;
45011;SDS011;63444;48.148;11.542;2023-02-03T09:02:08;1.60;;;1.50;;
45011;SDS011;63444;48.148;11.542;2023-02-03T09:04:38;2.93;;;1.40;;
45011;SDS011;63444;48.148;11.542;2023-02-03T09:07:04;2.90;;;1.33;;
45011;SDS011;63444;48.148;11.542;2023-02-03T09:09:29;2.53;;;1.60;;
45011;SDS011;63444;48.148;11.542;2023-02-03T09:11:55;4.77;;;1.60;;
45011;SDS011;63444;48.148;11.542;2023-02-03T09:14:26;1.60;;;1.17;;
45011;SDS011;63444;48.148;11.542;2023-02-03T09:16:53;1.60;;;1.30;;
45011;SDS011;63444;48.148;11.542;2023-02-03T09:19:19;1.20;;;1.10;;
45011;SDS011;63444;48.148;11.542;2023-02-03T09:21:44;3.10;;;1.20;;
45011;SDS011;63444;48.148;11.542;2023-02-03T09:24:12;1.50;;;1.10;;
45011;SDS011;63444;48.148;11.542;2023-02-03T09:26:39;1.77;;;1.20;;
45011;SDS011;63444;48.148;11.542;2023-02-03T09:29:04;1.77;;;1.30;;
45011;SDS011;63444;48.148;11.542;2023-02-03T09:31:31;1.67;;;1.40;;
45011;SDS011;63444;48.148;11.542;2023-02-03T09:33:57;3.00;;;1.40;;
45011;SDS011;63444;48.148;11.542;2023-02-03T09:36:24;2.43;;;1.20;;
45011;SDS011;63444;48.148;11.542;2023-02-03T09:38:50;1.80;;;1.37;;
45011;SDS011;63444;48.148;11.542;2023-02-03T09:46:59;5.90;;;1.60;;
45011;SDS011;63444;48.148;11.542;2023-02-03T09:52:39;2.40;;;1.50;;
45011;SDS011;63444;48.148;11.542;2023-02-03T09:57:49;2.57;;;1.40;;
45011;SDS011;63444;48.148;11.542;2023-02-03T10:06:09;2.63;;;1.30;;
45011;SDS011;63444;48.148;11.542;2023-02-03T10:09:04;2.37;;;1.10;;
45011;SDS011;63444;48.148;11.542;2023-02-03T10:11:53;1.93;;;1.37;;
45011;SDS011;63444;48.148;11.542;2023-02-03T10:14:36;4.30;;;1.80;;
45011;SDS011;63444;48.148;11.542;2023-02-03T10:18:14;3.23;;;1.30;;
45011;SDS011;63444;48.148;11.542;2023-02-03T10:20:18;3.03;;;1.40;;
45011;SDS011;63444;48.148;11.542;2023-02-03T10:23:00;3.00;;;1.43;;
45011;SDS011;63444;48.148;11.542;2023-02-03T10:25:32;1.33;;;1.23;;
45011;SDS011;63444;48.148;11.542;2023-02-03T10:28:03;2.93;;;1.20;;
45011;SDS011;63444;48.148;11.542;2023-02-03T10:30:44;1.67;;;1.17;;
45011;SDS011;63444;48.148;11.542;2023-02-03T10:33:26;1.83;;;1.30;;
45011;SDS011;63444;48.148;11.542;2023-02-03T10:35:53;1.37;;;1.27;;
45011;SDS011;63444;48.148;11.542;2023-02-03T10:40:48;2.73;;;1.30;;
45011;SDS011;63444;48.148;11.542;2023-02-03T10:43:14;2.67;;;1.77;;
45011;SDS011;63444;48.148;11.542;2023-02-03T10:45:58;2.17;;;1.40;;
45011;SDS011;63444;48.148;11.542;2023-02-03T10:48:24;3.40;;;1.53;;
45011;SDS011;63444;48.148;11.542;2023-02-03T10:50:50;3.50;;;1.47;;
45011;SDS011;63444;48.148;11.542;2023-02-03T10:56:07;1.40;;;1.30;;
45011;SDS011;63444;48.148;11.542;2023-02-03T10:58:37;2.30;;;1.40;;
45011;SDS011;63444;48.148;11.542;2023-02-03T11:01:11;2.73;;;1.37;;
45011;SDS011;63444;48.148;11.542;2023-02-03T11:03:42;2.73;;;1.50;;
45011;SDS011;63444;48.148;11.542;2023-02-03T11:06:20;2.80;;;1.57;;
45011;SDS011;63444;48.148;11.542;2023-02-03T11:08:47;2.47;;;1.37;;
45011;SDS011;63444;48.148;11.542;2023-02-03T11:11:25;3.47;;;1.43;;
45011;SDS011;63444;48.148;11.542;2023-02-03T11:13:51;5.10;;;1.57;;
45011;SDS011;63444;48.148;11.542;2023-02-03T11:16:26;2.43;;;1.53;;
45011;SDS011;63444;48.148;11.542;2023-02-03T11:24:08;1.60;;;1.23;;
45011;SDS011;63444;48.148;11.542;2023-02-03T11:26:46;3.17;;;1.33;;
45011;SDS011;63444;48.148;11.542;2023-02-03T11:29:16;2.27;;;1.20;;
45011;SDS011;63444;48.148;11.542;2023-02-03T11:31:46;5.17;;;1.40;;
45011;SDS011;63444;48.148;11.542;2023-02-03T11:34:15;2.40;;;1.30;;
45011;SDS011;63444;48.148;11.542;2023-02-03T11:36:46;3.50;;;1.60;;
45011;SDS011;63444;48.148;11.542;2023-02-03T11:39:16;3.70;;;1.53;;
45011;SDS011;63444;48.148;11.542;2023-02-03T11:41:42;2.80;;;1.63;;
45011;SDS011;63444;48.148;11.542;2023-02-03T11:44:15;3.10;;;1.30;;
45011;SDS011;63444;48.148;11.542;2023-02-03T11:46:43;1.63;;;1.20;;
45011;SDS011;63444;48.148;11.542;2023-02-03T11:54:59;1.97;;;1.23;;
45011;SDS011;63444;48.148;11.542;2023-02-03T12:14:48;2.20;;;1.27;;
45011;SDS011;63444;48.148;11.542;2023-02-03T12:17:29;3.90;;;1.00;;
45011;SDS011;63444;48.148;11.542;2023-02-03T12:20:22;1.37;;;1.20;;
45011;SDS011;63444;48.148;11.542;2023-02-03T12:28:45;2.10;;;1.20;;
45011;SDS011;63444;48.148;11.542;2023-02-03T12:34:29;1.73;;;1.33;;
45011;SDS011;63444;48.148;11.542;2023-02-03T12:37:16;2.00;;;1.40;;
45011;SDS011;63444;48.148;11.542;2023-02-03T12:39:57;2.60;;;1.07;;
45011;SDS011;63444;48.148;11.542;2023-02-03T12:45:24;3.50;;;1.17;;
45011;SDS011;63444;48.148;11.542;2023-02-03T12:47:55;4.07;;;1.07;;
45011;SDS011;63444;48.148;11.542;2023-02-03T12:53:38;1.57;;;1.10;;
45011;SDS011;63444;48.148;11.542;2023-02-03T12:58:38;3.30;;;1.30;;
45011;SDS011;63444;48.148;11.542;2023-02-03T13:01:13;4.37;;;1.20;;
45011;SDS011;63444;48.148;11.542;2023-02-03T13:03:59;1.90;;;1.10;;
45011;SDS011;63444;48.148;11.542;2023-02-03T13:12:30;2.53;;;1.33;;
45011;SDS011;63444;48.148;11.542;2023-02-03T13:15:28;3.23;;;1.00;;
45011;SDS011;63444;48.148;11.542;2023-02-03T13:20:30;2.40;;;1.23;;
45011;SDS011;63444;48.148;11.542;2023-02-03T13:23:00;2.10;;;1.30;;
45011;SDS011;63444;48.148;11.542;2023-02-03T13:42:32;3.50;;;1.33;;
45011;SDS011;63444;48.148;11.542;2023-02-03T13:47:48;1.33;;;1.23;;
45011;SDS011;63444;48.148;11.542;2023-02-03T13:50:24;2.10;;;1.40;;
45011;SDS011;63444;48.148;11.542;2023-02-03T13:55:28;2.00;;;1.20;;
45011;SDS011;63444;48.148;11.542;2023-02-03T13:58:02;2.40;;;1.27;;
45011;SDS011;63444;48.148;11.542;2023-02-03T14:05:50;4.17;;;1.30;;
45011;SDS011;63444;48.148;11.542;2023-02-03T14:16:35;2.17;;;1.23;;
45011;SDS011;63444;48.148;11.542;2023-02-03T14:19:02;2.03;;;1.20;;
45011;SDS011;63444;48.148;11.542;2023-02-03T14:21:36;2.07;;;1.30;;
45011;SDS011;63444;48.148;11.542;2023-02-03T14:24:13;1.73;;;1.23;;
45011;SDS011;63444;48.148;11.542;2023-02-03T14:26:44;3.63;;;1.53;;
45011;SDS011;63444;48.148;11.542;2023-02-03T14:32:06;1.87;;;1.10;;
45011;SDS011;63444;48.148;11.542;2023-02-03T14:34:39;1.47;;;1.20;;
45011;SDS011;63444;48.148;11.542;2023-02-03T14:37:19;2.70;;;1.30;;
45011;SDS011;63444;48.148;11.542;2023-02-03T14:45:24;6.47;;;1.53;;
45011;SDS011;63444;48.148;11.542;2023-02-03T14:48:00;3.60;;;1.40;;
45011;SDS011;63444;48.148;11.542;2023-02-03T14:53:29;1.47;;;1.10;;
45011;SDS011;63444;48.148;11.542;2023-02-03T14:56:29;2.23;;;1.30;;
45011;SDS011;63444;48.148;11.542;2023-02-03T14:59:15;2.30;;;1.00;;
45011;SDS011;63444;48.148;11.542;2023-02-03T15:09:18;2.37;;;1.10;;
45011;SDS011;63444;48.148;11.542;2023-02-03T15:12:23;2.20;;;1.27;;
45011;SDS011;63444;48.148;11.542;2023-02-03T15:14:51;1.40;;;1.30;;
45011;SDS011;63444;48.148;11.542;2023-02-03T15:19:51;2.13;;;1.20;;
45011;SDS011;63444;48.148;11.542;2023-02-03T15:22:23;2.77;;;1.37;;
45011;SDS011;63444;48.148;11.542;2023-02-03T15:24:52;2.23;;;1.30;;
45011;SDS011;63444;48.148;11.542;2023-02-03T15:27:21;3.53;;;1.37;;
45011;SDS011;63444;48.148;11.542;2023-02-03T15:29:52;9.13;;;1.40;;
45011;SDS011;63444;48.148;11.542;2023-02-03T15:34:48;1.40;;;1.30;;
45011;SDS011;63444;48.148;11.542;2023-02-03T15:37:17;2.17;;;1.33;;
45011;SDS011;63444;48.148;11.542;2023-02-03T15:40:00;1.30;;;1.20;;
45011;SDS011;63444;48.148;11.542;2023-02-03T15:42:35;2.90;;;1.30;;
45011;SDS011;63444;48.148;11.542;2023-02-03T15:47:40;1.60;;;1.37;;
45011;SDS011;63444;48.148;11.542;2023-02-03T15:50:22;1.30;;;1.20;;
45011;SDS011;63444;48.148;11.542;2023-02-03T15:52:59;3.00;;;1.40;;
45011;SDS011;63444;48.148;11.542;2023-02-03T15:55:31;1.73;;;1.30;;
45011;SDS011;63444;48.148;11.542;2023-02-03T15:58:10;2.80;;;1.20;;
45011;SDS011;63444;48.148;11.542;2023-02-03T16:00:43;3.90;;;1.37;;
45011;SDS011;63444;48.148;11.542;2023-02-03T16:03:16;1.20;;;1.10;;
45011;SDS011;63444;48.148;11.542;2023-02-03T16:05:45;4.80;;;1.20;;
45011;SDS011;63444;48.148;11.542;2023-02-03T16:11:29;2.33;;;1.40;;
45011;SDS011;63444;48.148;11.542;2023-02-03T16:13:55;1.47;;;1.37;;
45011;SDS011;63444;48.148;11.542;2023-02-03T16:16:48;2.73;;;1.33;;
45011;SDS011;63444;48.148;11.542;2023-02-03T16:19:21;1.40;;;1.20;;
45011;SDS011;63444;48.148;11.542;2023-02-03T16:24:35;1.30;;;1.20;;
45011;SDS011;63444;48.148;11.542;2023-02-03T16:29:44;1.83;;;1.40;;
45011;SDS011;63444;48.148;11.542;2023-02-03T16:32:28;1.57;;;1.47;;
45011;SDS011;63444;48.148;11.542;2023-02-03T16:35:12;1.80;;;1.20;;
45011;SDS011;63444;48.148;11.542;2023-02-03T16:38:03;2.03;;;1.37;;
45011;SDS011;63444;48.148;11.542;2023-02-03T16:40:50;1.67;;;1.30;;
45011;SDS011;63444;48.148;11.542;2023-02-03T16:43:34;1.97;;;1.40;;
45011;SDS011;63444;48.148;11.542;2023-02-03T16:46:18;3.87;;;1.50;;
45011;SDS011;63444;48.148;11.542;2023-02-03T16:49:05;1.77;;;1.47;;
45011;SDS011;63444;48.148;11.542;2023-02-03T16:51:49;3.43;;;1.20;;
45011;SDS011;63444;48.148;11.542;2023-02-03T16:54:15;1.63;;;1.30;;
45011;SDS011;63444;48.148;11.542;2023-02-03T16:56:42;1.77;;;1.20;;
45011;SDS011;63444;48.148;11.542;2023-02-03T16:59:08;5.43;;;1.30;;
45011;SDS011;63444;48.148;11.542;2023-02-03T17:01:34;2.53;;;1.67;;
45011;SDS011;63444;48.148;11.542;2023-02-03T17:04:00;2.40;;;1.27;;
45011;SDS011;63444;48.148;11.542;2023-02-03T17:06:26;1.20;;;1.10;;
45011;SDS011;63444;48.148;11.542;2023-02-03T17:08:52;1.80;;;1.13;;
45011;SDS011;63444;48.148;11.542;2023-02-03T17:11:19;3.47;;;1.50;;
45011;SDS011;63444;48.148;11.542;2023-02-03T17:13:45;1.50;;;1.30;;
45011;SDS011;63444;48.148;11.542;2023-02-03T17:16:16;2.23;;;1.10;;
45011;SDS011;63444;48.148;11.542;2023-02-03T17:18:44;1.63;;;1.10;;
45011;SDS011;63444;48.148;11.542;2023-02-03T17:21:13;1.80;;;1.30;;
45011;SDS011;63444;48.148;11.542;2023-02-03T17:23:43;2.50;;;1.23;;
45011;SDS011;63444;48.148;11.542;2023-02-03T17:26:08;3.37;;;1.57;;
45011;SDS011;63444;48.148;11.542;2023-02-03T17:28:34;1.10;;;1.10;;
45011;SDS011;63444;48.148;11.542;2023-02-03T17:31:01;2.87;;;1.53;;
45011;SDS011;63444;48.148;11.542;2023-02-03T17:33:29;3.50;;;1.30;;
45011;SDS011;63444;48.148;11.542;2023-02-03T17:36:20;3.23;;;1.30;;
45011;SDS011;63444;48.148;11.542;2023-02-03T17:38:47;1.20;;;1.13;;
45011;SDS011;63444;48.148;11.542;2023-02-03T17:41:16;1.60;;;1.30;;